createdAt,value
2018-04-01T00:01:24.173Z,32.50
2018-04-01T00:03:52.079Z,31.80
2018-04-01T00:06:19.960Z,32.73
2018-04-01T00:08:47.919Z,32.20
2018-04-01T00:11:15.821Z,34.80
2018-04-01T00:13:43.713Z,33.60
2018-04-01T00:16:11.610Z,36.37
2018-04-01T00:18:39.533Z,35.80
2018-04-01T00:21:07.415Z,37.23
2018-04-01T00:23:36.324Z,37.23
2018-04-01T00:26:04.978Z,37.17
2018-04-01T00:28:32.906Z,37.03
2018-04-01T00:31:00.821Z,41.13
2018-04-01T00:33:28.707Z,39.13
2018-04-01T00:35:57.411Z,38.03
2018-04-01T00:38:25.287Z,39.53
2018-04-01T00:40:53.227Z,38.97
2018-04-01T00:43:21.892Z,37.87
2018-04-01T00:45:49.775Z,40.97
2018-04-01T00:48:18.445Z,41.17
2018-04-01T00:50:46.333Z,40.20
2018-04-01T00:53:15.014Z,39.13
2018-04-01T00:55:43.706Z,37.20
2018-04-01T00:58:11.612Z,39.10
2018-04-01T01:00:40.572Z,40.63
2018-04-01T01:03:08.470Z,38.33
2018-04-01T01:05:36.372Z,40.13
2018-04-01T01:08:04.280Z,38.90
2018-04-01T01:10:32.200Z,39.43
2018-04-01T01:13:00.059Z,41.23
2018-04-01T01:15:27.931Z,44.70
2018-04-01T01:17:55.895Z,44.63
2018-04-01T01:20:23.817Z,42.57
2018-04-01T01:22:51.699Z,40.63
2018-04-01T01:25:19.582Z,38.97
2018-04-01T01:27:47.488Z,38.93
2018-04-01T01:30:16.194Z,38.07
2018-04-01T01:32:44.882Z,36.93
2018-04-01T01:35:12.778Z,42.63
2018-04-01T01:37:40.735Z,40.60
2018-04-01T01:40:11.890Z,38.50
2018-04-01T01:42:39.789Z,38.77
2018-04-01T01:45:08.438Z,42.10
2018-04-01T01:47:36.329Z,42.93
2018-04-01T01:50:04.238Z,40.40
2018-04-01T01:52:32.191Z,44.23
2018-04-01T01:55:00.092Z,45.70
2018-04-01T01:57:27.963Z,46.53
2018-04-01T01:59:55.916Z,47.57
2018-04-01T02:02:23.800Z,49.27
2018-04-01T02:04:51.721Z,46.10
2018-04-01T02:07:20.385Z,49.43
2018-04-01T02:09:48.294Z,45.87
2018-04-01T02:12:16.277Z,45.37
2018-04-01T02:14:44.161Z,47.33
2018-04-01T02:17:12.057Z,45.63
2018-04-01T02:19:39.996Z,45.37
2018-04-01T02:22:07.942Z,46.13
2018-04-01T02:24:35.826Z,44.63
2018-04-01T02:27:03.764Z,47.97
2018-04-01T02:29:31.749Z,52.57
2018-04-01T02:31:59.649Z,52.43
2018-04-01T02:34:27.563Z,54.10
2018-04-01T02:36:55.842Z,53.60
2018-04-01T02:39:23.710Z,52.90
2018-04-01T02:41:51.633Z,55.80
2018-04-01T02:44:20.357Z,55.90
2018-04-01T02:46:48.233Z,55.90
2018-04-01T02:49:16.130Z,56.93
2018-04-01T02:51:44.031Z,55.87
2018-04-01T02:54:12.692Z,56.27
2018-04-01T02:56:40.648Z,56.23
2018-04-01T02:59:08.552Z,61.13
2018-04-01T03:01:37.192Z,61.37
2018-04-01T03:04:05.124Z,59.30
2018-04-01T03:06:33.030Z,55.17
2018-04-01T03:09:00.981Z,52.27
2018-04-01T03:11:28.863Z,51.90
2018-04-01T03:13:56.766Z,47.67
2018-04-01T03:16:25.446Z,50.53
2018-04-01T03:18:54.112Z,50.03
2018-04-01T03:21:22.057Z,47.33
2018-04-01T03:23:49.998Z,46.27
2018-04-01T03:26:17.920Z,50.20
2018-04-01T03:28:45.814Z,48.43
2018-04-01T03:31:13.714Z,47.67
2018-04-01T03:33:41.660Z,47.83
2018-04-01T03:36:09.542Z,51.57
2018-04-01T03:38:37.482Z,49.33
2018-04-01T03:41:05.420Z,50.17
2018-04-01T03:43:33.310Z,49.17
2018-04-01T03:46:01.973Z,48.00
2018-04-01T03:48:29.859Z,49.70
2018-04-01T03:50:57.811Z,45.53
2018-04-01T03:53:25.673Z,48.07
2018-04-01T03:55:53.563Z,44.77
2018-04-01T03:58:22.242Z,44.63
2018-04-01T04:00:50.912Z,42.13
2018-04-01T04:03:18.807Z,45.13
2018-04-01T04:05:46.731Z,41.50
2018-04-01T04:08:14.675Z,40.83
2018-04-01T04:10:42.569Z,38.83
2018-04-01T04:13:10.872Z,38.83
2018-04-01T04:15:39.488Z,40.17
2018-04-01T04:18:07.347Z,39.33
2018-04-01T04:20:35.233Z,35.10
2018-04-01T04:23:03.152Z,36.57
2018-04-01T04:25:31.794Z,34.47
2018-04-01T04:27:59.680Z,34.43
2018-04-01T04:30:27.630Z,35.20
2018-04-01T04:32:55.524Z,37.37
2018-04-01T04:35:24.151Z,34.73
2018-04-01T04:37:52.034Z,38.07
2018-04-01T04:40:19.960Z,35.87
2018-04-01T04:42:48.190Z,36.17
2018-04-01T04:45:16.079Z,36.20
2018-04-01T04:47:44.737Z,36.87
2018-04-01T04:50:12.644Z,34.17
2018-04-01T04:52:41.339Z,36.77
2018-04-01T04:55:09.275Z,35.87
2018-04-01T04:57:37.163Z,36.17
2018-04-01T05:00:05.881Z,35.17
2018-04-01T05:02:33.767Z,34.23
2018-04-01T05:05:01.686Z,35.37
2018-04-01T05:07:29.617Z,31.83
2018-04-01T05:09:57.547Z,31.30
2018-04-01T05:12:25.504Z,31.97
2018-04-01T05:14:53.389Z,30.87
2018-04-01T05:17:21.248Z,33.63
2018-04-01T05:19:49.938Z,34.13
2018-04-01T05:22:18.210Z,34.37
2018-04-01T05:24:46.096Z,34.50
2018-04-01T05:27:13.971Z,32.20
2018-04-01T05:29:41.849Z,34.17
2018-04-01T05:32:09.806Z,33.17
2018-04-01T05:34:37.684Z,33.20
2018-04-01T05:37:05.544Z,32.97
2018-04-01T05:39:33.450Z,34.33
2018-04-01T05:42:01.347Z,33.40
2018-04-01T05:44:29.314Z,31.93
2018-04-01T05:46:57.174Z,32.53
2018-04-01T05:49:25.090Z,31.93
2018-04-01T05:51:53.771Z,31.53
2018-04-01T05:54:21.649Z,31.43
2018-04-01T05:56:50.276Z,32.57
2018-04-01T05:59:18.608Z,30.87
2018-04-01T06:01:47.274Z,28.20
2018-04-01T06:04:15.181Z,30.13
2018-04-01T06:06:43.082Z,29.90
2018-04-01T06:09:10.975Z,29.53
2018-04-01T06:11:38.863Z,28.80
2018-04-01T06:14:07.561Z,26.73
2018-04-01T06:16:35.452Z,27.07
2018-04-01T06:19:03.334Z,20.77
2018-04-01T06:21:31.588Z,20.00
2018-04-01T06:23:59.463Z,19.47
2018-04-01T06:26:27.347Z,20.17
2018-04-01T06:28:55.284Z,18.43
2018-04-01T06:31:23.168Z,17.83
2018-04-01T06:33:51.063Z,20.83
2018-04-01T06:36:19.006Z,22.63
2018-04-01T06:38:46.863Z,22.93
2018-04-01T06:41:14.726Z,23.77
2018-04-01T06:43:42.661Z,25.37
2018-04-01T06:46:10.588Z,25.10
2018-04-01T06:48:38.503Z,25.30
2018-04-01T06:51:06.410Z,24.43
2018-04-01T06:53:34.275Z,23.87
2018-04-01T06:56:02.143Z,20.83
2018-04-01T06:58:30.070Z,21.03
2018-04-01T07:00:57.958Z,26.93
2018-04-01T07:03:25.885Z,23.23
2018-04-01T07:05:53.793Z,23.47
2018-04-01T07:08:21.704Z,23.33
2018-04-01T07:10:50.384Z,18.37
2018-04-01T07:13:19.061Z,18.27
2018-04-01T07:15:46.971Z,17.37
2018-04-01T07:18:14.887Z,18.40
2018-04-01T07:20:42.807Z,17.30
2018-04-01T07:23:10.659Z,18.00
2018-04-01T07:25:38.586Z,17.63
2018-04-01T07:28:06.443Z,16.83
2018-04-01T07:30:34.346Z,16.77
2018-04-01T07:33:02.978Z,17.47
2018-04-01T07:35:30.845Z,17.50
2018-04-01T07:37:58.773Z,18.87
2018-04-01T07:40:27.409Z,17.97
2018-04-01T07:42:55.606Z,18.77
2018-04-01T07:45:23.495Z,23.00
2018-04-01T07:47:51.409Z,24.40
2018-04-01T07:50:19.328Z,23.63
2018-04-01T07:52:49.857Z,24.40
2018-04-01T07:55:19.222Z,24.47
2018-04-01T07:57:49.155Z,28.03
2018-04-01T08:00:18.200Z,28.50
2018-04-01T08:02:48.016Z,29.30
2018-04-01T08:05:18.265Z,28.40
2018-04-01T08:07:47.034Z,28.07
2018-04-01T08:10:16.226Z,30.53
2018-04-01T08:12:45.510Z,30.67
2018-04-01T08:15:14.204Z,30.50
2018-04-01T08:17:44.371Z,28.50
2018-04-01T08:20:13.042Z,28.77
2018-04-01T08:22:40.997Z,30.33
2018-04-01T08:25:10.929Z,29.83
2018-04-01T08:27:39.787Z,28.27
2018-04-01T08:30:07.744Z,28.87
2018-04-01T08:32:35.641Z,29.97
2018-04-01T08:35:03.505Z,29.40
2018-04-01T08:37:31.413Z,27.43
2018-04-01T08:39:59.546Z,27.73
2018-04-01T08:42:27.453Z,26.97
2018-04-01T08:44:55.424Z,25.13
2018-04-01T08:47:23.333Z,27.90
2018-04-01T08:49:51.258Z,27.47
2018-04-01T08:52:19.187Z,25.40
2018-04-01T08:54:47.076Z,24.80
2018-04-01T08:57:17.753Z,21.43
2018-04-01T08:59:45.720Z,20.80
2018-04-01T09:02:13.627Z,19.43
2018-04-01T09:04:41.571Z,19.57
2018-04-01T09:07:10.485Z,19.60
2018-04-01T09:09:39.145Z,19.73
2018-04-01T09:12:07.076Z,18.97
2018-04-01T09:14:34.968Z,20.60
2018-04-01T09:17:04.941Z,20.33
2018-04-01T09:19:32.844Z,20.87
2018-04-01T09:22:00.781Z,22.30
2018-04-01T09:24:30.616Z,22.27
2018-04-01T09:26:59.880Z,23.77
2018-04-01T09:29:28.023Z,22.93
2018-04-01T09:31:57.763Z,25.70
2018-04-01T09:34:25.667Z,24.40
2018-04-01T09:36:54.860Z,24.57
2018-04-01T09:39:22.755Z,24.47
2018-04-01T09:41:50.750Z,22.70
2018-04-01T09:44:19.407Z,22.97
2018-04-01T09:46:48.342Z,22.93
2018-04-01T09:49:16.858Z,17.93
2018-04-01T09:51:45.842Z,15.83
2018-04-01T09:54:17.772Z,12.80
2018-04-01T09:56:45.653Z,15.40
2018-04-01T09:59:14.601Z,15.57
2018-04-01T10:01:44.924Z,14.37
2018-04-01T10:04:13.340Z,16.23
2018-04-01T10:06:43.065Z,13.93
2018-04-01T10:09:11.428Z,14.03
2018-04-01T10:11:39.792Z,14.47
2018-04-01T10:14:10.018Z,15.17
2018-04-01T10:16:38.449Z,16.70
2018-04-01T10:19:06.875Z,15.37
2018-04-01T10:21:37.261Z,15.90
2018-04-01T10:24:07.005Z,15.53
2018-04-01T10:26:35.514Z,14.57
2018-04-01T10:29:03.955Z,14.97
2018-04-01T10:31:33.147Z,14.90
2018-04-01T10:34:02.349Z,13.10
2018-04-01T10:36:31.634Z,13.47
2018-04-01T10:39:00.764Z,12.73
2018-04-01T10:41:29.294Z,13.13
2018-04-01T10:43:57.716Z,12.73
2018-04-01T10:46:26.286Z,11.57
2018-04-01T10:48:55.449Z,11.10
2018-04-01T10:51:23.871Z,11.83
2018-04-01T10:53:56.574Z,12.93
2018-04-01T10:56:26.707Z,13.80
2018-04-01T10:58:54.994Z,14.47
2018-04-01T11:01:23.654Z,15.40
2018-04-01T11:03:51.545Z,16.47
2018-04-01T11:06:19.570Z,17.20
2018-04-01T11:08:47.584Z,19.20
2018-04-01T11:11:15.499Z,21.03
2018-04-01T11:13:43.446Z,24.37
2018-04-01T11:16:12.177Z,24.83
2018-04-01T11:18:40.392Z,26.17
2018-04-01T11:21:09.548Z,26.87
2018-04-01T11:23:37.415Z,27.10
2018-04-01T11:26:05.439Z,27.37
2018-04-01T11:28:35.244Z,28.37
2018-04-01T11:31:03.155Z,22.03
2018-04-01T11:33:31.016Z,20.43
2018-04-01T11:36:00.109Z,22.53
2018-04-01T11:38:32.824Z,20.50
2018-04-01T11:41:01.108Z,17.43
2018-04-01T11:43:29.106Z,17.53
2018-04-01T11:45:57.880Z,17.87
2018-04-01T11:48:25.803Z,17.23
2018-04-01T11:50:53.841Z,15.53
2018-04-01T11:53:21.738Z,18.37
2018-04-01T11:55:51.235Z,17.90
2018-04-01T11:58:19.105Z,17.70
2018-04-01T12:00:48.097Z,18.53
2018-04-01T12:03:16.007Z,19.27
2018-04-01T12:05:43.905Z,18.53
2018-04-01T12:08:11.847Z,18.80
2018-04-01T12:10:40.527Z,19.93
2018-04-01T12:13:09.268Z,17.87
2018-04-01T12:15:37.283Z,15.30
2018-04-01T12:18:05.260Z,16.53
2018-04-01T12:20:34.427Z,14.73
2018-04-01T12:23:04.024Z,14.63
2018-04-01T12:25:33.576Z,14.87
2018-04-01T12:28:02.349Z,14.77
2018-04-01T12:30:30.265Z,15.03
2018-04-01T12:32:58.505Z,13.80
2018-04-01T12:35:27.228Z,13.73
2018-04-01T12:37:55.210Z,13.33
2018-04-01T12:40:23.244Z,13.97
2018-04-01T12:42:52.159Z,13.13
2018-04-01T12:45:20.250Z,12.30
2018-04-01T12:47:48.356Z,12.53
2018-04-01T12:50:17.155Z,13.43
2018-04-01T12:52:46.257Z,14.90
2018-04-01T12:55:14.180Z,13.30
2018-04-01T12:57:42.073Z,13.33
2018-04-01T13:00:10.752Z,12.53
2018-04-01T13:02:38.688Z,13.13
2018-04-01T13:05:06.689Z,13.07
2018-04-01T13:07:35.338Z,14.17
2018-04-01T13:10:03.549Z,14.27
2018-04-01T13:12:31.475Z,15.03
2018-04-01T13:14:59.420Z,14.57
2018-04-01T13:17:27.430Z,15.60
2018-04-01T13:19:55.345Z,17.93
2018-04-01T13:22:23.235Z,17.93
2018-04-01T13:24:51.096Z,19.50
2018-04-01T13:27:21.275Z,20.70
2018-04-01T13:29:49.994Z,20.30
2018-04-01T13:32:17.886Z,21.47
2018-04-01T13:34:45.771Z,20.77
2018-04-01T13:37:13.688Z,19.87
2018-04-01T13:39:41.560Z,17.37
2018-04-01T13:42:10.241Z,15.57
2018-04-01T13:44:38.106Z,16.30
2018-04-01T13:47:06.401Z,16.80
2018-04-01T13:49:34.344Z,17.10
2018-04-01T13:52:02.199Z,17.57
2018-04-01T13:54:30.116Z,14.67
2018-04-01T13:56:58.055Z,15.50
2018-04-01T13:59:25.981Z,13.93
2018-04-01T14:01:56.428Z,13.43
2018-04-01T14:04:24.292Z,13.97
2018-04-01T14:06:52.298Z,14.23
2018-04-01T14:09:20.246Z,13.07
2018-04-01T14:11:48.145Z,13.13
2018-04-01T14:14:16.013Z,13.27
2018-04-01T14:16:45.019Z,12.40
2018-04-01T14:19:13.676Z,13.37
2018-04-01T14:21:41.616Z,12.80
2018-04-01T14:24:10.662Z,12.60
2018-04-01T14:26:39.093Z,13.47
2018-04-01T14:29:07.487Z,13.27
2018-04-01T14:31:37.592Z,13.73
2018-04-01T14:34:05.623Z,14.57
2018-04-01T14:36:34.398Z,13.17
2018-04-01T14:39:02.326Z,13.80
2018-04-01T14:41:30.261Z,14.03
2018-04-01T14:43:59.145Z,13.67
2018-04-01T14:46:27.923Z,13.37
2018-04-01T14:48:56.666Z,13.23
2018-04-01T14:51:26.750Z,13.13
2018-04-01T14:53:55.661Z,14.53
2018-04-01T14:56:29.692Z,13.23
2018-04-01T14:58:57.653Z,13.27
2018-04-01T15:01:25.584Z,13.33
2018-04-01T15:03:53.483Z,13.57
2018-04-01T15:06:21.442Z,13.80
2018-04-01T15:08:49.388Z,13.93
2018-04-01T15:11:17.320Z,13.73
2018-04-01T15:13:46.571Z,12.70
2018-04-01T15:16:14.576Z,13.20
2018-04-01T15:18:42.488Z,13.60
2018-04-01T15:21:10.440Z,13.80
2018-04-01T15:23:38.539Z,13.37
2018-04-01T15:26:06.549Z,13.77
2018-04-01T15:28:34.451Z,14.07
2018-04-01T15:31:02.332Z,13.77
2018-04-01T15:33:30.394Z,15.20
2018-04-01T15:35:58.493Z,14.63
2018-04-01T15:38:27.512Z,13.40
2018-04-01T15:40:55.580Z,14.20
2018-04-01T15:43:23.438Z,13.63
2018-04-01T15:45:51.379Z,14.33
2018-04-01T15:48:19.306Z,14.43
2018-04-01T15:50:47.944Z,13.53
2018-04-01T15:53:15.855Z,13.30
2018-04-01T15:55:44.569Z,14.97
2018-04-01T15:58:12.475Z,15.03
2018-04-01T16:00:40.359Z,14.87
2018-04-01T16:03:08.241Z,14.80
2018-04-01T16:06:12.925Z,15.00
2018-04-01T16:09:14.810Z,15.13
2018-04-01T16:11:49.782Z,16.07
2018-04-01T16:14:19.570Z,14.57
2018-04-01T16:16:51.488Z,15.20
2018-04-01T16:19:19.543Z,16.30
2018-04-01T16:21:47.476Z,16.50
2018-04-01T16:24:16.255Z,16.60
2018-04-01T16:26:45.178Z,15.90
2018-04-01T16:29:13.112Z,15.13
2018-04-01T16:31:42.689Z,16.53
2018-04-01T16:34:12.073Z,15.67
2018-04-01T16:36:40.101Z,17.67
2018-04-01T16:39:08.073Z,16.37
2018-04-01T16:41:35.996Z,16.43
2018-04-01T16:44:03.963Z,17.03
2018-04-01T16:46:31.955Z,17.93
2018-04-01T16:49:00.676Z,18.27
2018-04-01T16:51:28.675Z,19.33
2018-04-01T16:53:56.549Z,18.70
2018-04-01T16:56:24.608Z,17.53
2018-04-01T16:58:52.641Z,17.60
2018-04-01T17:01:21.347Z,18.47
2018-04-01T17:03:49.279Z,17.63
2018-04-01T17:06:18.014Z,19.37
2018-04-01T17:08:46.083Z,19.37
2018-04-01T17:11:13.987Z,18.73
2018-04-01T17:13:43.034Z,19.47
2018-04-01T17:16:13.566Z,19.00
2018-04-01T17:18:43.235Z,19.20
2018-04-01T17:21:13.289Z,18.77
2018-04-01T17:23:43.150Z,19.40
2018-04-01T17:26:11.270Z,20.43
2018-04-01T17:28:39.159Z,21.57
2018-04-01T17:31:07.115Z,20.47
2018-04-01T17:33:35.052Z,19.63
2018-04-01T17:36:04.294Z,19.83
2018-04-01T17:38:32.300Z,22.23
2018-04-01T17:41:00.962Z,22.87
2018-04-01T17:43:28.874Z,23.57
2018-04-01T17:45:56.778Z,26.20
2018-04-01T17:48:24.679Z,26.07
2018-04-01T17:50:53.360Z,24.90
2018-04-01T17:53:22.007Z,23.23
2018-04-01T17:55:49.966Z,24.50
2018-04-01T17:58:17.895Z,24.63
2018-04-01T18:00:45.783Z,24.10
2018-04-01T18:03:13.683Z,24.47
2018-04-01T18:05:41.679Z,25.30
2018-04-01T18:08:17.522Z,24.03
2018-04-01T18:10:45.486Z,24.70
2018-04-01T18:13:13.338Z,22.73
2018-04-01T18:15:41.304Z,23.97
2018-04-01T18:18:11.232Z,22.80
2018-04-01T18:20:39.284Z,23.90
2018-04-01T18:23:07.229Z,22.83
2018-04-01T18:25:35.290Z,21.70
2018-04-01T18:28:03.303Z,23.03
2018-04-01T18:30:31.340Z,23.97
2018-04-01T18:32:59.222Z,27.03
2018-04-01T18:35:27.208Z,27.47
2018-04-01T18:37:55.298Z,24.10
2018-04-01T18:40:23.925Z,24.37
2018-04-01T18:42:51.848Z,25.83
2018-04-01T18:45:20.527Z,27.63
2018-04-01T18:47:48.907Z,27.10
2018-04-01T18:50:16.748Z,26.37
2018-04-01T18:52:45.407Z,26.97
2018-04-01T18:55:14.378Z,25.60
2018-04-01T18:57:43.343Z,26.17
2018-04-01T19:00:12.007Z,28.53
2018-04-01T19:02:39.922Z,28.67
2018-04-01T19:05:08.887Z,28.70
2018-04-01T19:07:44.189Z,28.47
2018-04-01T19:10:12.121Z,30.23
2018-04-01T19:12:40.044Z,33.07
2018-04-01T19:15:08.048Z,33.30
2018-04-01T19:17:37.655Z,34.40
2018-04-01T19:20:06.043Z,35.90
2018-04-01T19:22:34.427Z,37.80
2018-04-01T19:25:03.962Z,38.50
2018-04-01T19:27:32.417Z,38.63
2018-04-01T19:30:00.876Z,40.03
2018-04-01T19:32:29.328Z,41.03
2018-04-01T19:34:57.736Z,39.77
2018-04-01T19:37:26.182Z,43.77
2018-04-01T19:39:55.381Z,44.60
2018-04-01T19:42:24.537Z,45.93
2018-04-01T19:44:53.098Z,44.93
2018-04-01T19:47:22.097Z,42.10
2018-04-01T19:49:50.488Z,41.47
2018-04-01T19:52:18.904Z,40.73
2018-04-01T19:54:47.526Z,40.60
2018-04-01T19:57:15.965Z,40.40
2018-04-01T19:59:44.446Z,42.70
2018-04-01T20:02:12.873Z,49.03
2018-04-01T20:04:41.247Z,47.53
2018-04-01T20:07:09.674Z,40.97
2018-04-01T20:09:38.029Z,39.50
2018-04-01T20:12:06.529Z,37.60
2018-04-01T20:14:34.917Z,34.50
2018-04-01T20:17:03.362Z,33.47
2018-04-01T20:19:31.809Z,32.90
2018-04-01T20:22:00.267Z,33.43
2018-04-01T20:24:30.433Z,32.67
2018-04-01T20:26:58.786Z,34.93
2018-04-01T20:29:27.226Z,36.17
2018-04-01T20:31:55.579Z,38.57
2018-04-01T20:34:24.002Z,39.77
2018-04-01T20:36:53.175Z,39.00
2018-04-01T20:39:23.644Z,41.43
2018-04-01T20:41:53.140Z,40.43
2018-04-01T20:44:21.534Z,42.77
2018-04-01T20:46:49.933Z,45.63
2018-04-01T20:49:18.303Z,46.00
2018-04-01T20:51:47.612Z,49.63
2018-04-01T20:54:16.028Z,45.87
2018-04-01T20:56:44.476Z,45.90
2018-04-01T20:59:12.828Z,45.37
2018-04-01T21:01:41.218Z,46.73
2018-04-01T21:04:10.205Z,44.70
2018-04-01T21:06:38.641Z,43.80
2018-04-01T21:09:07.800Z,44.03
2018-04-01T21:11:36.245Z,43.70
2018-04-01T21:14:04.612Z,44.27
2018-04-01T21:16:33.047Z,45.20
2018-04-01T21:19:01.416Z,44.97
2018-04-01T21:21:29.878Z,45.33
2018-04-01T21:23:58.823Z,48.30
2018-04-01T21:26:27.990Z,46.07
2018-04-01T21:28:57.056Z,47.17
2018-04-01T21:31:26.299Z,47.80
2018-04-01T21:33:54.692Z,48.33
2018-04-01T21:36:24.256Z,45.97
2018-04-01T21:38:52.672Z,49.87
2018-04-01T21:41:22.826Z,47.83
2018-04-01T21:43:51.209Z,49.07
2018-04-01T21:46:19.567Z,51.20
2018-04-01T21:48:48.006Z,48.07
2018-04-01T21:51:16.392Z,49.67
2018-04-01T21:53:44.858Z,47.97
2018-04-01T21:56:13.382Z,48.87
2018-04-01T21:58:42.218Z,48.87
2018-04-01T22:01:10.799Z,49.03
2018-04-01T22:03:39.713Z,47.33
2018-04-01T22:06:11.955Z,47.30
2018-04-01T22:08:40.983Z,49.97
2018-04-01T22:11:09.497Z,49.53
2018-04-01T22:13:38.560Z,49.13
2018-04-01T22:16:08.824Z,48.83
2018-04-01T22:18:37.199Z,49.93
2018-04-01T22:21:05.940Z,50.80
2018-04-01T22:23:35.089Z,49.07
2018-04-01T22:26:03.515Z,49.20
2018-04-01T22:28:32.664Z,49.33
2018-04-01T22:31:01.003Z,49.70
2018-04-01T22:33:30.165Z,50.40
2018-04-01T22:35:58.542Z,48.07
2018-04-01T22:38:26.897Z,49.77
2018-04-01T22:40:55.264Z,46.23
2018-04-01T22:43:23.633Z,48.67
2018-04-01T22:45:52.497Z,49.67
2018-04-01T22:48:21.685Z,49.80
2018-04-01T22:50:50.844Z,48.93
2018-04-01T22:53:19.235Z,49.10
2018-04-01T22:55:47.636Z,51.57
2018-04-01T22:58:17.818Z,49.97
2018-04-01T23:00:46.219Z,49.50
2018-04-01T23:03:14.595Z,48.53
2018-04-01T23:05:43.003Z,49.67
2018-04-01T23:08:11.375Z,45.13
2018-04-01T23:10:40.560Z,50.17
2018-04-01T23:13:09.698Z,49.17
2018-04-01T23:15:38.915Z,48.00
2018-04-01T23:18:07.290Z,48.57
2018-04-01T23:20:35.644Z,49.47
2018-04-01T23:23:04.089Z,49.93
2018-04-01T23:25:33.232Z,49.90
2018-04-01T23:28:01.609Z,48.33
2018-04-01T23:30:29.976Z,49.37
2018-04-01T23:32:58.378Z,52.77
2018-04-01T23:35:26.776Z,49.73
2018-04-01T23:37:55.247Z,50.40
2018-04-01T23:40:24.039Z,52.83
2018-04-01T23:42:52.395Z,49.13
2018-04-01T23:45:20.885Z,50.00
2018-04-01T23:47:49.361Z,47.03
2018-04-01T23:50:17.792Z,49.60
2018-04-01T23:52:46.236Z,48.70
2018-04-01T23:55:14.699Z,45.93
2018-04-01T23:57:43.161Z,49.93
